Zhezkazgan, Kazakhstan
Current Conditions -  °F | °C
As of 11:00 AM on Thursday 23 Oct 2014 (Local Time) from UAKD Reporting Station
Scattered Clouds Scattered Clouds  
Wind Chill: 39°   Ceiling: Unl
Heat Index: 45°   Visibility: 6mi
Dew Point: 41°   Wind: 11mph
Humidity: 87%   Direction: 270°W
Pressure: 29.85"   Gusts: NA
Location:  47.78°N, 67.77°E
Report Text: UAKD 230500Z 27005MPS 9999 SCT100 07/05 Q1011 R221///63 NOSIGRMK QFE725/0967
Loading
Personal Weather Stations






























Interactive Weather Map
Tropical Storm Tracking
New forecast layout! Learn more

10-Day Weather Forecast

Advertisements
Track Severe Weather on mobile